createdAt,value
2022-07-30T00:00:02.396Z,19.83
2022-07-30T00:07:01.880Z,19.69
2022-07-30T00:14:01.403Z,19.69
2022-07-30T00:21:02.143Z,19.5
2022-07-30T00:28:01.898Z,19.29
2022-07-30T00:35:02.131Z,19.29
2022-07-30T00:42:01.636Z,19.1
2022-07-30T00:49:01.772Z,19.1
2022-07-30T00:56:01.411Z,19.01
2022-07-30T01:00:02.170Z,19.01
2022-07-30T01:07:02.032Z,18.78
2022-07-30T01:14:01.604Z,18.78
2022-07-30T01:21:02.031Z,18.79
2022-07-30T01:28:01.530Z,18.79
2022-07-30T01:35:02.077Z,18.65
2022-07-30T01:42:01.712Z,18.65
2022-07-30T01:49:01.494Z,18.72
2022-07-30T01:56:02.219Z,18.72
2022-07-30T02:00:01.852Z,18.73
2022-07-30T02:07:02.427Z,18.73
2022-07-30T02:14:02.080Z,18.62
2022-07-30T02:21:02.530Z,18.62
2022-07-30T02:28:01.512Z,18.57
2022-07-30T02:35:01.615Z,18.57
2022-07-30T02:42:01.944Z,18.49
2022-07-30T02:49:01.538Z,18.49
2022-07-30T02:56:01.395Z,18.37
2022-07-30T03:00:01.950Z,18.37
2022-07-30T03:07:06.271Z,18.17
2022-07-30T03:14:01.447Z,18.17
2022-07-30T03:21:02.001Z,18.17
2022-07-30T03:28:01.920Z,18.07
2022-07-30T03:35:06.084Z,18.07
2022-07-30T03:42:02.297Z,17.91
2022-07-30T03:49:02.164Z,17.91
2022-07-30T03:56:01.909Z,17.85
2022-07-30T04:00:02.509Z,17.85
2022-07-30T04:07:02.437Z,17.89
2022-07-30T04:14:02.021Z,17.89
2022-07-30T04:21:02.121Z,17.69
2022-07-30T04:28:03.542Z,17.69
2022-07-30T04:35:02.245Z,17.73
2022-07-30T04:42:01.533Z,17.73
2022-07-30T04:49:02.097Z,17.69
2022-07-30T04:56:02.145Z,17.69
2022-07-30T05:00:01.786Z,17.57
2022-07-30T05:07:01.680Z,17.57
2022-07-30T05:14:01.962Z,17.57
2022-07-30T05:21:01.485Z,17.57
2022-07-30T05:28:01.485Z,17.57
2022-07-30T05:35:02.175Z,17.57
2022-07-30T05:42:02.074Z,17.59
2022-07-30T05:49:02.149Z,17.59
2022-07-30T05:56:02.211Z,17.55
2022-07-30T06:00:01.882Z,17.55
2022-07-30T06:07:02.103Z,17.67
2022-07-30T06:14:02.228Z,17.67
2022-07-30T06:21:01.974Z,17.6
2022-07-30T06:28:15.423Z,17.66
2022-07-30T06:35:04.831Z,17.66
2022-07-30T06:42:01.806Z,17.63
2022-07-30T06:49:02.021Z,17.63
2022-07-30T06:56:01.432Z,17.61
2022-07-30T07:00:01.974Z,17.61
2022-07-30T07:07:12.330Z,17.73
2022-07-30T07:14:04.747Z,17.73
2022-07-30T07:21:02.114Z,17.91
2022-07-30T07:28:12.062Z,17.91
2022-07-30T07:35:01.720Z,18.02
2022-07-30T07:42:02.314Z,18.02
2022-07-30T07:49:01.980Z,18.02
2022-07-30T07:56:02.258Z,18.02
2022-07-30T08:00:01.837Z,18.23
2022-07-30T08:07:02.328Z,18.23
2022-07-30T08:14:01.949Z,18.32
2022-07-30T08:21:02.314Z,18.32
2022-07-30T08:28:02.099Z,18.37
2022-07-30T08:35:01.777Z,18.37
2022-07-30T08:42:02.530Z,18.61
2022-07-30T08:49:05.385Z,18.61
2022-07-30T08:56:01.596Z,18.72
2022-07-30T09:00:02.344Z,18.72
2022-07-30T09:07:02.548Z,18.99
2022-07-30T09:14:03.042Z,18.99
2022-07-30T09:21:01.987Z,19.25
2022-07-30T09:28:01.663Z,19.44
2022-07-30T09:35:02.057Z,19.44
2022-07-30T09:42:02.358Z,19.53
2022-07-30T09:49:01.467Z,19.53
2022-07-30T09:56:01.675Z,19.64
2022-07-30T10:00:02.027Z,19.64
2022-07-30T10:07:01.663Z,19.72
2022-07-30T10:14:01.757Z,19.72
2022-07-30T10:21:02.018Z,19.91
2022-07-30T10:28:02.788Z,19.91
2022-07-30T10:35:01.719Z,20.09
2022-07-30T10:42:02.374Z,20.09
2022-07-30T10:49:01.558Z,20.2
2022-07-30T10:56:02.236Z,20.2
2022-07-30T11:00:04.055Z,20.29
2022-07-30T11:07:01.344Z,20.29
2022-07-30T11:14:02.123Z,20.4
2022-07-30T11:21:01.497Z,20.4
2022-07-30T11:28:02.293Z,20.46
2022-07-30T11:35:01.967Z,20.46
2022-07-30T11:42:02.340Z,20.75
2022-07-30T11:49:01.881Z,20.75
2022-07-30T11:56:01.978Z,20.89
2022-07-30T12:00:01.573Z,20.89
2022-07-30T12:07:02.250Z,20.98
2022-07-30T12:14:01.714Z,20.98
2022-07-30T12:21:01.515Z,21.16
2022-07-30T12:28:01.943Z,21.28
2022-07-30T12:35:02.402Z,21.28
2022-07-30T12:42:01.987Z,21.62
2022-07-30T12:49:04.239Z,21.62
2022-07-30T12:56:01.729Z,21.73
2022-07-30T13:00:02.416Z,21.73
2022-07-30T13:07:02.308Z,21.87
2022-07-30T13:14:01.560Z,21.87
2022-07-30T13:21:01.505Z,21.96
2022-07-30T13:28:01.859Z,21.96
2022-07-30T13:35:02.255Z,22.11
2022-07-30T13:42:02.138Z,22.11
2022-07-30T13:49:01.460Z,22.16
2022-07-30T13:56:02.064Z,22.16
2022-07-30T14:00:01.993Z,22.19
2022-07-30T14:07:02.298Z,22.19
2022-07-30T14:14:02.038Z,22.33
2022-07-30T14:21:02.003Z,22.33
2022-07-30T14:28:02.167Z,22.26
2022-07-30T14:35:02.383Z,22.26
2022-07-30T14:42:02.231Z,22.33
2022-07-30T14:49:01.835Z,22.33
2022-07-30T14:56:02.032Z,22.4
2022-07-30T15:00:01.576Z,22.4
2022-07-30T15:07:01.872Z,22.45
2022-07-30T15:14:01.958Z,22.45
2022-07-30T15:21:02.131Z,22.5
2022-07-30T15:28:01.597Z,22.5
2022-07-30T15:35:01.988Z,22.5
2022-07-30T15:42:02.750Z,22.58
2022-07-30T15:49:01.927Z,22.58
2022-07-30T15:56:02.091Z,22.7
2022-07-30T16:00:01.653Z,22.7
2022-07-30T16:07:01.814Z,22.79
2022-07-30T16:14:01.667Z,22.79
2022-07-30T16:21:01.803Z,22.76
2022-07-30T16:28:01.841Z,22.76
2022-07-30T16:35:02.260Z,22.77
2022-07-30T16:42:01.706Z,22.77
2022-07-30T16:49:02.290Z,22.72
2022-07-30T16:56:01.440Z,22.72
2022-07-30T17:00:02.102Z,22.71
2022-07-30T17:07:02.017Z,22.71
2022-07-30T17:14:02.086Z,22.77
2022-07-30T17:21:01.818Z,22.77
2022-07-30T17:28:01.428Z,22.71
2022-07-30T17:35:01.964Z,22.71
2022-07-30T17:42:03.157Z,22.68
2022-07-30T17:49:01.779Z,22.68
2022-07-30T17:56:02.233Z,22.65
2022-07-30T18:00:01.769Z,22.65
2022-07-30T18:07:01.797Z,22.5
2022-07-30T18:14:01.786Z,22.5
2022-07-30T18:21:02.314Z,22.59
2022-07-30T18:28:01.962Z,22.59
2022-07-30T18:35:01.831Z,22.55
2022-07-30T18:42:01.656Z,22.44
2022-07-30T18:49:20.960Z,22.44
2022-07-30T18:56:01.733Z,22.42
2022-07-30T19:00:02.444Z,22.42
2022-07-30T19:07:02.188Z,22.27
2022-07-30T19:14:01.647Z,22.27
2022-07-30T19:21:02.051Z,22.11
2022-07-30T19:28:02.071Z,22.11
2022-07-30T19:35:01.743Z,21.95
2022-07-30T19:42:01.550Z,21.95
2022-07-30T19:49:01.484Z,22.03
2022-07-30T19:56:02.351Z,22.03
2022-07-30T20:00:04.210Z,21.95
2022-07-30T20:07:02.163Z,21.95
2022-07-30T20:14:02.136Z,21.79
2022-07-30T20:21:01.892Z,21.79
2022-07-30T20:28:02.009Z,21.75
2022-07-30T20:35:02.437Z,21.75
2022-07-30T20:42:02.235Z,21.7
2022-07-30T20:49:02.270Z,21.7
2022-07-30T20:56:01.845Z,21.66
2022-07-30T21:00:02.487Z,21.66
2022-07-30T21:07:01.703Z,21.69
2022-07-30T21:14:01.749Z,21.69
2022-07-30T21:21:05.710Z,21.66
2022-07-30T21:28:02.719Z,21.66
2022-07-30T21:35:08.197Z,21.64
2022-07-30T21:42:02.110Z,21.53
2022-07-30T21:49:02.121Z,21.53
2022-07-30T21:56:01.648Z,21.39
2022-07-30T22:00:02.221Z,21.39
2022-07-30T22:07:01.810Z,21.33
2022-07-30T22:14:02.289Z,21.33
2022-07-30T22:21:01.874Z,21.22
2022-07-30T22:28:01.515Z,21.22
2022-07-30T22:35:01.672Z,21.23
2022-07-30T22:42:02.228Z,21.23
2022-07-30T22:49:01.606Z,21.19
2022-07-30T22:56:01.635Z,21.19
2022-07-30T23:00:02.364Z,21.17
2022-07-30T23:07:02.083Z,21.17
2022-07-30T23:14:01.850Z,21.08
2022-07-30T23:21:01.673Z,21.08
2022-07-30T23:28:01.507Z,21.06
2022-07-30T23:35:02.341Z,21.06
2022-07-30T23:42:01.867Z,21.07
2022-07-30T23:49:01.837Z,21.07
2022-07-30T23:56:01.856Z,20.96
